Time;durP1;ratioP1;P1;durP2;ratioP2;P2;SDS_P1;SDS_P2;PMS_P1;PMS_P2;Temp;Humidity;BMP_temperature;BMP_pressure;BME280_temperature;BME280_humidity;BME280_pressure;Samples;Min_cycle;Max_cycle;Signal;HPM_P1;HPM_P2
2022/11/12 00:00:41;;;;;;;10.55;6.32;;;7.90;79.50;;;;;;5037437;28;20029;-74
2022/11/12 00:03:07;;;;;;;8.27;5.68;;;8.00;79.40;;;;;;5054815;28;20049;-74
2022/11/12 00:05:33;;;;;;;8.60;5.80;;;8.10;79.40;;;;;;5037454;28;20025;-74
2022/11/12 00:07:59;;;;;;;10.85;5.85;;;8.10;79.10;;;;;;5037157;28;20061;-74
2022/11/12 00:10:25;;;;;;;10.60;5.32;;;8.10;78.80;;;;;;5037198;28;20030;-74
2022/11/12 00:12:52;;;;;;;9.63;5.50;;;8.10;78.20;;;;;;5037024;28;20029;-74
2022/11/12 00:15:17;;;;;;;10.18;5.40;;;8.00;78.30;;;;;;5054548;28;20033;-74
2022/11/12 00:17:43;;;;;;;9.95;5.00;;;8.00;78.30;;;;;;5020708;28;20041;-74
2022/11/12 00:20:09;;;;;;;8.85;5.53;;;8.00;78.10;;;;;;5054432;28;20057;-74
2022/11/12 00:22:35;;;;;;;11.60;6.25;;;7.80;78.30;;;;;;5054445;28;20073;-74
2022/11/12 00:25:03;;;;;;;8.50;4.85;;;7.90;78.60;;;;;;5054369;28;20049;-74
2022/11/12 00:27:30;;;;;;;8.13;4.65;;;7.90;78.20;;;;;;5054273;28;20033;-74
2022/11/12 00:29:55;;;;;;;8.15;4.80;;;8.00;78.00;;;;;;5036808;28;20121;-74
2022/11/12 00:32:21;;;;;;;8.98;5.38;;;7.90;78.10;;;;;;5054246;28;20453;-74
2022/11/12 00:34:46;;;;;;;9.85;5.10;;;7.90;78.10;;;;;;5054187;28;20056;-74
2022/11/12 00:37:12;;;;;;;7.45;4.72;;;7.90;78.40;;;;;;5020452;28;20056;-74
2022/11/12 00:39:38;;;;;;;9.57;5.30;;;7.80;78.70;;;;;;5054085;28;20026;-74
2022/11/12 00:42:03;;;;;;;10.52;5.55;;;7.80;78.90;;;;;;5054155;28;20029;-74
2022/11/12 00:44:29;;;;;;;8.75;5.30;;;7.80;79.00;;;;;;5053975;28;20041;-74
2022/11/12 00:46:56;;;;;;;8.85;5.35;;;7.90;78.90;;;;;;5053975;28;20026;-74
2022/11/12 00:49:22;;;;;;;6.63;4.10;;;7.90;78.60;;;;;;5053919;28;20052;-74
2022/11/12 00:51:48;;;;;;;7.85;4.22;;;7.90;78.70;;;;;;5036426;28;20034;-74
2022/11/12 00:54:14;;;;;;;6.78;4.10;;;7.90;78.80;;;;;;5053851;28;20057;-74
2022/11/12 00:56:40;;;;;;;8.30;5.00;;;8.00;78.90;;;;;;5036242;28;20072;-74
2022/11/12 00:59:05;;;;;;;14.75;3.92;;;8.00;79.10;;;;;;5053773;28;20030;-74
2022/11/12 01:01:31;;;;;;;5.93;3.83;;;7.90;79.00;;;;;;5036282;28;20026;-74
2022/11/12 01:03:58;;;;;;;8.45;4.13;;;7.90;79.00;;;;;;5036170;28;20056;-74
2022/11/12 01:06:24;;;;;;;6.35;4.28;;;7.80;79.90;;;;;;5053612;28;20045;-74
2022/11/12 01:08:51;;;;;;;6.70;4.65;;;7.70;79.50;;;;;;5053363;28;20037;-74
2022/11/12 01:11:19;;;;;;;8.32;4.95;;;7.70;79.90;;;;;;5053556;28;20036;-74
2022/11/12 01:13:46;;;;;;;10.32;4.93;;;7.80;80.10;;;;;;5053532;28;20089;-74
2022/11/12 01:16:15;;;;;;;7.07;4.90;;;7.80;80.00;;;;;;5053470;28;20044;-74
2022/11/12 01:18:42;;;;;;;7.65;4.80;;;7.80;79.60;;;;;;5035859;28;20059;-74
2022/11/12 01:21:08;;;;;;;7.75;4.88;;;7.80;79.30;;;;;;5053425;28;20025;-74
2022/11/12 01:23:36;;;;;;;8.40;4.82;;;7.80;79.40;;;;;;5035919;28;20018;-74
2022/11/12 01:26:06;;;;;;;8.63;5.38;;;7.90;79.20;;;;;;5053380;28;20045;-74
2022/11/12 01:28:32;;;;;;;7.82;4.82;;;7.90;79.00;;;;;;5035784;28;20025;-74
2022/11/12 01:31:08;;;;;;;7.43;4.20;;;7.80;78.50;;;;;;5053137;28;20133;-74
2022/11/12 01:33:34;;;;;;;8.90;5.20;;;7.80;78.60;;;;;;5052321;28;20057;-74
2022/11/12 01:35:59;;;;;;;9.35;4.93;;;7.80;78.80;;;;;;5019368;28;20029;-74
2022/11/12 01:38:25;;;;;;;9.05;4.93;;;7.70;79.10;;;;;;5053127;28;20044;-74
2022/11/12 01:40:50;;;;;;;9.85;4.88;;;7.70;79.30;;;;;;5053176;28;20034;-74
2022/11/12 01:43:16;;;;;;;7.53;4.95;;;7.60;79.60;;;;;;5035677;28;20029;-74
2022/11/12 01:45:45;;;;;;;8.80;4.85;;;7.60;79.60;;;;;;5053090;28;20029;-74
2022/11/12 01:48:45;;;;;;;8.27;4.40;;;7.60;79.60;;;;;;5053110;28;20026;-74
2022/11/12 01:51:12;;;;;;;10.88;5.57;;;7.70;79.50;;;;;;5035713;28;20044;-74
2022/11/12 01:53:42;;;;;;;8.70;5.05;;;7.60;79.40;;;;;;5053054;28;20034;-74
2022/11/12 01:56:08;;;;;;;7.90;5.10;;;7.50;79.60;;;;;;5053039;28;20026;-74
2022/11/12 01:58:37;;;;;;;7.63;4.57;;;7.40;79.60;;;;;;5053038;28;20037;-74
2022/11/12 02:01:03;;;;;;;11.05;5.32;;;7.30;79.60;;;;;;5052997;28;20049;-74
2022/11/12 02:03:29;;;;;;;10.10;4.78;;;7.20;79.70;;;;;;5035632;28;20026;-74
2022/11/12 02:05:59;;;;;;;10.15;4.82;;;7.20;79.90;;;;;;5053050;28;20029;-74
2022/11/12 02:08:28;;;;;;;9.90;5.00;;;7.20;80.00;;;;;;5035401;28;20021;-74
2022/11/12 02:10:53;;;;;;;9.07;4.35;;;7.20;79.90;;;;;;5035525;28;20025;-74
2022/11/12 02:16:06;;;;;;;8.73;4.38;;;7.10;79.90;;;;;;5053085;28;20048;-74
2022/11/12 02:18:32;;;;;;;8.82;4.97;;;7.20;80.10;;;;;;5052678;28;20029;-74
2022/11/12 02:21:03;;;;;;;7.32;4.10;;;7.20;79.90;;;;;;5055210;28;20013;-74
2022/11/12 02:23:31;;;;;;;9.05;5.22;;;7.20;79.60;;;;;;5056669;28;20029;-74
2022/11/12 02:25:58;;;;;;;6.10;3.90;;;7.30;79.50;;;;;;5039482;28;20033;-74
2022/11/12 02:28:24;;;;;;;5.75;3.63;;;7.20;79.10;;;;;;5039121;28;20053;-74
2022/11/12 02:30:50;;;;;;;10.00;3.80;;;7.20;79.30;;;;;;5039027;28;20471;-74
2022/11/12 02:33:16;;;;;;;4.97;3.53;;;7.20;78.90;;;;;;5039065;28;20036;-74
2022/11/12 02:35:41;;;;;;;6.45;3.83;;;6.90;79.10;;;;;;5056438;28;20034;-74
2022/11/12 02:38:08;;;;;;;5.15;2.88;;;6.90;80.00;;;;;;5056458;28;20044;-74
2022/11/12 02:40:33;;;;;;;4.93;3.63;;;6.90;80.30;;;;;;5038898;28;20018;-74
2022/11/12 02:42:59;;;;;;;6.38;4.25;;;6.80;80.40;;;;;;5056298;28;20036;-74
2022/11/12 02:45:26;;;;;;;6.28;3.78;;;6.80;80.70;;;;;;5056294;28;20026;-74
2022/11/12 02:47:52;;;;;;;6.55;4.25;;;6.90;80.50;;;;;;5056217;28;20025;-74
2022/11/12 02:50:17;;;;;;;6.40;3.80;;;7.00;80.10;;;;;;5056202;28;20026;-74
2022/11/12 02:52:43;;;;;;;7.60;4.53;;;7.10;79.90;;;;;;5056121;28;20114;-74
2022/11/12 02:55:10;;;;;;;7.70;4.15;;;7.10;79.90;;;;;;5056088;28;20026;-74
2022/11/12 02:57:37;;;;;;;6.07;4.15;;;7.10;79.70;;;;;;5038386;28;20031;-74
2022/11/12 03:00:04;;;;;;;8.82;4.60;;;7.00;79.60;;;;;;5038717;28;20029;-74
2022/11/12 03:02:30;;;;;;;7.95;4.85;;;6.90;79.70;;;;;;5038301;28;20033;-74
2022/11/12 03:04:56;;;;;;;8.50;4.65;;;6.80;80.00;;;;;;5038504;28;20026;-74
2022/11/12 03:07:21;;;;;;;7.15;4.80;;;6.80;80.20;;;;;;5055849;28;20033;-74
2022/11/12 03:09:47;;;;;;;9.00;4.70;;;6.80;80.20;;;;;;5005612;28;20096;-74
2022/11/12 03:12:12;;;;;;;7.38;4.78;;;6.90;80.10;;;;;;5038287;28;20025;-74
2022/11/12 03:14:38;;;;;;;6.60;4.68;;;6.80;80.00;;;;;;5055834;28;20030;-74
2022/11/12 03:17:04;;;;;;;11.02;5.43;;;6.90;80.30;;;;;;5038047;28;20039;-74
2022/11/12 03:19:29;;;;;;;6.78;4.40;;;6.90;80.10;;;;;;5055682;28;20026;-74
2022/11/12 03:21:55;;;;;;;7.47;4.53;;;6.80;80.20;;;;;;5055590;28;20037;-74
2022/11/12 03:24:20;;;;;;;9.30;4.10;;;6.80;80.20;;;;;;5055536;28;20022;-74
2022/11/12 03:26:46;;;;;;;7.13;4.55;;;6.70;80.60;;;;;;5038119;28;20389;-74
2022/11/12 03:29:11;;;;;;;7.70;4.65;;;6.70;80.50;;;;;;5037853;28;20049;-74
2022/11/12 03:31:37;;;;;;;8.18;4.82;;;6.60;80.30;;;;;;5036754;28;20053;-74
2022/11/12 03:34:03;;;;;;;7.90;4.40;;;6.70;80.30;;;;;;5021414;28;20022;-74
2022/11/12 03:36:29;;;;;;;6.82;4.20;;;6.80;80.30;;;;;;5055344;28;20178;-74
2022/11/12 03:38:55;;;;;;;7.55;4.78;;;6.80;80.00;;;;;;5055252;28;20097;-74
2022/11/12 03:41:20;;;;;;;7.35;5.07;;;6.70;80.00;;;;;;5055250;28;20076;-74
2022/11/12 03:43:46;;;;;;;6.22;4.57;;;6.60;80.20;;;;;;5055328;28;20049;-74
2022/11/12 03:46:12;;;;;;;7.03;4.25;;;6.70;80.40;;;;;;5037651;28;20030;-74
2022/11/12 03:48:37;;;;;;;8.02;4.30;;;6.80;80.10;;;;;;5055084;28;20032;-74
2022/11/12 03:51:03;;;;;;;6.57;4.07;;;6.80;79.40;;;;;;5055068;28;20033;-74
2022/11/12 03:53:29;;;;;;;6.05;4.18;;;6.80;79.20;;;;;;5037558;28;20042;-74
2022/11/12 03:55:54;;;;;;;9.45;4.53;;;6.80;79.00;;;;;;5054943;28;20028;-74
2022/11/12 03:58:20;;;;;;;7.80;4.18;;;6.80;79.00;;;;;;5037266;28;20034;-74
2022/11/12 04:00:46;;;;;;;7.18;4.25;;;6.80;79.20;;;;;;5037428;28;20025;-74
2022/11/12 04:03:11;;;;;;;6.97;4.38;;;6.80;79.30;;;;;;5054833;28;20036;-74
2022/11/12 04:08:35;;;;;;;8.77;4.32;;;6.80;79.40;;;;;;5054869;28;20036;-74
2022/11/12 04:11:04;;;;;;;7.45;3.95;;;6.80;79.40;;;;;;5037208;28;20072;-74
2022/11/12 04:13:30;;;;;;;8.10;4.43;;;6.60;79.70;;;;;;5054647;28;20085;-74
2022/11/12 04:21:57;;;;;;;9.68;5.10;;;6.50;80.70;;;;;;5054745;28;20060;-74
2022/11/12 04:27:18;;;;;;;8.13;4.47;;;6.60;80.50;;;;;;5054628;28;20037;-74
2022/11/12 04:32:31;;;;;;;9.65;4.65;;;6.60;80.10;;;;;;5054454;28;20056;-74
2022/11/12 04:34:57;;;;;;;7.55;4.68;;;6.50;80.20;;;;;;5054219;28;20031;-74
2022/11/12 04:37:25;;;;;;;9.50;5.07;;;6.40;80.50;;;;;;5054108;28;20029;-73
2022/11/12 04:39:51;;;;;;;7.20;4.15;;;6.50;80.50;;;;;;5054110;28;20053;-73
2022/11/12 04:45:05;;;;;;;6.88;4.40;;;6.60;80.30;;;;;;5054276;28;20032;-74
2022/11/12 04:47:34;;;;;;;7.45;4.45;;;6.60;80.10;;;;;;5053972;28;20036;-74
2022/11/12 04:50:00;;;;;;;9.98;5.10;;;6.70;80.00;;;;;;5053938;28;20022;-74
2022/11/12 04:52:26;;;;;;;8.35;4.88;;;6.70;80.00;;;;;;5053906;28;20049;-74
2022/11/12 04:54:53;;;;;;;6.63;4.70;;;6.60;80.00;;;;;;5053836;28;20444;-74
2022/11/12 04:57:18;;;;;;;9.68;4.45;;;6.50;80.30;;;;;;5053716;28;20032;-73
2022/11/12 04:59:45;;;;;;;9.20;4.95;;;6.50;80.30;;;;;;5053781;28;20026;-74
2022/11/12 05:02:10;;;;;;;13.85;5.22;;;6.60;80.10;;;;;;5019829;28;20083;-74
2022/11/12 05:04:36;;;;;;;7.35;4.28;;;6.60;79.90;;;;;;5036246;28;20033;-74
2022/11/12 05:07:01;;;;;;;6.47;4.40;;;6.60;79.80;;;;;;5053781;28;20034;-74
2022/11/12 05:09:28;;;;;;;8.02;4.47;;;6.50;80.00;;;;;;5053546;28;20040;-73
2022/11/12 05:11:54;;;;;;;7.75;4.30;;;6.40;79.90;;;;;;5053718;28;20092;-74
2022/11/12 05:14:21;;;;;;;8.93;4.93;;;6.30;80.00;;;;;;5053492;28;20033;-74
2022/11/12 05:16:47;;;;;;;8.27;4.53;;;6.30;80.20;;;;;;5035970;28;20028;-73
2022/11/12 05:19:13;;;;;;;7.00;4.68;;;6.40;80.30;;;;;;5035958;28;20027;-73
2022/11/12 05:24:23;;;;;;;9.48;5.03;;;6.50;80.20;;;;;;5038730;28;20061;-73
2022/11/12 05:26:49;;;;;;;6.95;4.13;;;6.50;79.80;;;;;;5053359;28;20089;-74
2022/11/12 05:29:15;;;;;;;6.65;4.15;;;6.50;79.60;;;;;;5053144;28;20137;-74
2022/11/12 05:31:41;;;;;;;7.15;3.83;;;6.50;79.60;;;;;;5036011;28;20026;-73
2022/11/12 05:34:06;;;;;;;6.70;3.67;;;6.50;79.60;;;;;;5035830;28;20037;-73
2022/11/12 05:36:33;;;;;;;5.97;4.15;;;6.40;79.60;;;;;;5053219;28;20110;-74
2022/11/12 05:38:58;;;;;;;9.32;4.97;;;6.40;80.00;;;;;;5053095;28;20049;-74
2022/11/12 05:41:24;;;;;;;8.45;5.00;;;6.40;80.20;;;;;;5035603;28;20026;-74
2022/11/12 05:43:50;;;;;;;7.22;4.80;;;6.40;80.50;;;;;;5053136;28;20029;-74
2022/11/12 05:46:16;;;;;;;10.20;4.30;;;6.50;80.50;;;;;;5035782;28;20025;-75
2022/11/12 05:48:42;;;;;;;8.48;4.93;;;6.40;80.80;;;;;;5035591;28;20040;-73
2022/11/12 05:51:07;;;;;;;6.45;4.53;;;6.30;80.80;;;;;;5053097;28;20033;-73
2022/11/12 05:53:33;;;;;;;6.93;4.43;;;6.30;81.10;;;;;;5035686;28;20030;-74
2022/11/12 05:56:03;;;;;;;6.60;4.47;;;6.20;81.30;;;;;;5038145;28;20119;-74
2022/11/12 05:58:30;;;;;;;8.20;4.68;;;6.20;81.40;;;;;;5057196;28;20044;-75
2022/11/12 06:00:55;;;;;;;9.15;5.03;;;6.10;81.40;;;;;;5039598;28;20013;-73
2022/11/12 06:03:21;;;;;;;8.80;4.65;;;6.20;81.50;;;;;;5057215;28;20021;-74
2022/11/12 06:05:47;;;;;;;7.30;4.55;;;6.30;81.30;;;;;;5039484;28;20026;-74
2022/11/12 06:08:12;;;;;;;8.10;4.72;;;6.40;80.90;;;;;;5039556;28;20025;-74
2022/11/12 06:10:38;;;;;;;6.13;4.60;;;6.30;80.50;;;;;;5057094;28;20059;-74
2022/11/12 06:13:04;;;;;;;8.45;4.68;;;6.20;80.60;;;;;;5056867;28;20060;-74
2022/11/12 06:15:29;;;;;;;8.38;5.47;;;6.20;80.70;;;;;;5056977;28;20102;-74
2022/11/12 06:17:55;;;;;;;9.73;4.60;;;6.10;80.80;;;;;;5039186;28;20032;-74
2022/11/12 06:20:22;;;;;;;7.25;4.13;;;6.10;80.80;;;;;;5039534;28;20029;-74
2022/11/12 06:22:48;;;;;;;8.15;4.40;;;6.10;81.00;;;;;;5039262;28;20021;-74
2022/11/12 06:25:14;;;;;;;8.40;4.38;;;6.10;81.00;;;;;;5056659;28;20021;-74
2022/11/12 06:27:40;;;;;;;7.50;4.38;;;6.20;80.50;;;;;;5056624;28;20029;-74
2022/11/12 06:30:07;;;;;;;7.60;4.20;;;6.20;80.30;;;;;;5056413;28;20045;-74
2022/11/12 06:32:33;;;;;;;10.02;4.18;;;6.20;80.40;;;;;;5056687;28;20140;-74
2022/11/12 06:34:58;;;;;;;9.02;4.45;;;6.10;80.40;;;;;;5056519;28;20045;-74
2022/11/12 06:37:24;;;;;;;7.93;4.95;;;6.00;80.60;;;;;;5038907;28;20042;-74
2022/11/12 06:39:50;;;;;;;7.78;4.70;;;6.00;81.00;;;;;;5038976;28;20068;-74
2022/11/12 06:42:15;;;;;;;6.80;4.43;;;6.10;81.10;;;;;;5022519;28;20025;-74
2022/11/12 06:44:41;;;;;;;7.00;4.20;;;6.20;81.20;;;;;;5056320;28;20017;-74
2022/11/12 06:47:07;;;;;;;8.43;4.78;;;6.20;81.30;;;;;;5056261;28;20048;-74
2022/11/12 06:49:33;;;;;;;9.45;4.55;;;6.30;81.30;;;;;;5022272;28;20030;-74
2022/11/12 06:51:58;;;;;;;7.88;4.85;;;6.30;81.40;;;;;;5038707;28;20049;-74
2022/11/12 06:54:24;;;;;;;7.78;4.60;;;6.30;81.70;;;;;;5038892;28;20040;-74
2022/11/12 06:56:49;;;;;;;8.38;4.50;;;6.30;81.60;;;;;;5038589;28;20025;-74
2022/11/12 06:59:16;;;;;;;7.22;5.07;;;6.30;81.60;;;;;;5056168;28;20479;-74
2022/11/12 07:01:42;;;;;;;8.20;4.55;;;6.40;81.30;;;;;;5056157;28;20047;-74
2022/11/12 07:04:07;;;;;;;9.20;5.20;;;6.40;81.00;;;;;;5055961;28;20048;-74
2022/11/12 07:06:33;;;;;;;6.00;4.30;;;6.30;80.50;;;;;;5038354;28;20242;-74
2022/11/12 07:08:59;;;;;;;6.43;3.72;;;6.20;80.60;;;;;;5038324;28;20033;-74
2022/11/12 07:11:24;;;;;;;7.07;4.72;;;6.10;80.70;;;;;;5038487;28;20025;-74
2022/11/12 07:13:50;;;;;;;8.38;4.95;;;6.00;81.00;;;;;;5055749;28;20022;-74
2022/11/12 07:16:17;;;;;;;9.27;4.15;;;6.00;81.20;;;;;;5038205;28;20037;-74
2022/11/12 07:18:45;;;;;;;8.52;4.97;;;6.00;81.40;;;;;;5055588;28;20013;-74
2022/11/12 07:21:13;;;;;;;7.18;4.05;;;6.00;81.50;;;;;;5055625;28;20026;-74
2022/11/12 07:23:38;;;;;;;6.85;4.57;;;5.90;81.60;;;;;;5055582;28;20017;-74
2022/11/12 07:26:16;;;;;;;9.63;5.03;;;6.00;81.90;;;;;;5038016;28;20108;-74
2022/11/12 07:28:43;;;;;;;9.57;5.47;;;6.10;82.00;;;;;;5038007;28;20029;-74
2022/11/12 07:31:11;;;;;;;12.55;5.72;;;6.20;82.10;;;;;;5037863;28;20136;-74
2022/11/12 07:33:37;;;;;;;10.02;5.30;;;6.20;82.20;;;;;;5037907;28;20056;-74
2022/11/12 07:36:04;;;;;;;9.77;5.07;;;6.30;82.20;;;;;;5055359;28;20404;-74
2022/11/12 07:38:31;;;;;;;9.85;5.57;;;6.30;82.40;;;;;;5055160;28;20033;-74
2022/11/12 07:41:07;;;;;;;9.07;4.95;;;6.50;82.30;;;;;;5037799;28;20120;-74
2022/11/12 07:43:34;;;;;;;10.32;5.55;;;6.50;82.30;;;;;;5055234;28;20022;-74
2022/11/12 07:46:05;;;;;;;10.95;5.78;;;6.60;82.30;;;;;;5055168;28;20026;-74
2022/11/12 07:48:31;;;;;;;12.25;5.90;;;6.60;82.30;;;;;;5055148;28;20034;-74
2022/11/12 07:51:02;;;;;;;10.32;6.28;;;6.70;82.30;;;;;;5037726;28;20085;-74
2022/11/12 07:53:28;;;;;;;13.23;6.57;;;6.70;82.20;;;;;;5055049;28;20072;-74
2022/11/12 07:55:58;;;;;;;9.60;5.97;;;6.70;82.40;;;;;;5054974;28;20022;-74
2022/11/12 07:58:25;;;;;;;10.35;6.10;;;6.70;83.30;;;;;;5037347;28;20033;-73
2022/11/12 08:00:52;;;;;;;10.27;6.10;;;6.60;82.50;;;;;;5037329;28;20084;-74
2022/11/12 08:03:18;;;;;;;9.85;5.50;;;6.70;82.80;;;;;;5037299;28;20032;-74
2022/11/12 08:05:44;;;;;;;11.00;6.05;;;6.70;82.90;;;;;;5054828;28;20104;-74
2022/11/12 08:08:10;;;;;;;13.48;5.85;;;7.00;82.90;;;;;;5054693;28;20040;-74
2022/11/12 08:10:36;;;;;;;9.98;6.03;;;7.30;82.90;;;;;;5054846;28;20026;-73
2022/11/12 08:13:02;;;;;;;12.63;6.72;;;7.80;82.60;;;;;;5020837;28;20029;-74
2022/11/12 08:15:28;;;;;;;13.07;8.27;;;8.40;82.30;;;;;;5037166;28;20105;-74
2022/11/12 08:17:54;;;;;;;13.15;7.43;;;9.10;81.80;;;;;;5053755;28;20025;-73
2022/11/12 08:20:19;;;;;;;10.43;6.78;;;9.70;80.00;;;;;;5036973;28;20582;-74
2022/11/12 08:22:45;;;;;;;14.35;6.97;;;10.10;79.10;;;;;;5054580;28;20021;-74
2022/11/12 08:25:11;;;;;;;12.35;6.72;;;10.50;77.90;;;;;;5054416;28;20030;-74
2022/11/12 08:27:36;;;;;;;10.65;6.30;;;10.70;76.40;;;;;;5054373;28;20025;-74
2022/11/12 08:30:03;;;;;;;11.00;6.55;;;10.90;76.20;;;;;;5054130;28;20041;-74
2022/11/12 08:32:29;;;;;;;11.25;6.88;;;11.20;75.20;;;;;;5054291;28;20029;-74
2022/11/12 08:34:54;;;;;;;9.57;6.32;;;11.60;75.10;;;;;;5037039;28;20115;-74
2022/11/12 08:37:20;;;;;;;12.02;7.10;;;11.80;73.70;;;;;;5036706;28;20060;-74
2022/11/12 08:39:46;;;;;;;10.15;6.20;;;11.80;73.30;;;;;;5054154;28;20031;-74
2022/11/12 08:42:11;;;;;;;10.50;6.78;;;12.00;73.50;;;;;;5036658;28;20029;-74
2022/11/12 08:44:37;;;;;;;12.07;6.57;;;12.10;72.80;;;;;;5054057;28;20053;-74
2022/11/12 08:47:02;;;;;;;12.90;6.95;;;12.20;72.20;;;;;;5054012;28;20044;-74
2022/11/12 08:49:29;;;;;;;11.73;7.30;;;12.30;72.50;;;;;;5053984;28;20026;-74
2022/11/12 08:51:55;;;;;;;12.27;7.47;;;12.30;71.70;;;;;;5053985;28;20108;-74
2022/11/12 08:54:20;;;;;;;15.40;7.72;;;12.40;71.70;;;;;;5053865;28;20033;-74
2022/11/12 08:56:46;;;;;;;14.45;7.60;;;12.50;71.70;;;;;;5053772;28;20030;-74
2022/11/12 08:59:12;;;;;;;11.30;7.53;;;12.60;71.30;;;;;;5053801;28;20025;-74
2022/11/12 09:01:38;;;;;;;12.30;7.90;;;12.60;71.30;;;;;;5036532;28;20013;-74
2022/11/12 09:04:03;;;;;;;13.93;7.60;;;12.90;71.20;;;;;;5053722;28;20029;-74
2022/11/12 09:06:29;;;;;;;10.93;7.88;;;13.00;70.20;;;;;;5053693;28;20022;-74
2022/11/12 09:08:55;;;;;;;10.27;7.35;;;13.10;70.40;;;;;;5053582;28;20033;-74
2022/11/12 09:11:20;;;;;;;15.52;7.50;;;13.30;70.10;;;;;;5053607;28;20037;-74
2022/11/12 09:13:46;;;;;;;11.98;7.68;;;13.60;69.80;;;;;;5036143;28;20034;-74
2022/11/12 09:16:11;;;;;;;13.68;8.13;;;14.00;69.00;;;;;;5036047;28;20033;-74
2022/11/12 09:18:37;;;;;;;12.70;7.90;;;14.00;67.70;;;;;;5035954;28;20044;-74
2022/11/12 09:21:09;;;;;;;11.48;7.30;;;13.90;68.30;;;;;;5053456;28;20025;-74
2022/11/12 09:23:35;;;;;;;12.85;8.02;;;13.70;68.40;;;;;;5053474;28;20052;-74
2022/11/12 09:26:02;;;;;;;11.30;7.85;;;13.50;69.30;;;;;;5053369;28;20022;-74
2022/11/12 09:28:27;;;;;;;12.95;8.20;;;13.50;69.20;;;;;;5053283;28;20040;-74
2022/11/12 09:30:54;;;;;;;10.55;7.40;;;13.20;70.90;;;;;;5053163;28;20101;-74
2022/11/12 09:33:25;;;;;;;12.38;7.68;;;13.00;70.40;;;;;;5053253;28;20041;-74
2022/11/12 09:35:52;;;;;;;13.68;7.93;;;12.90;71.50;;;;;;5053372;28;20026;-74
2022/11/12 09:38:19;;;;;;;10.90;7.47;;;13.00;72.10;;;;;;5053159;28;20112;-74
2022/11/12 09:40:50;;;;;;;11.73;7.72;;;13.10;72.30;;;;;;5053179;28;20045;-74
2022/11/12 09:43:22;;;;;;;14.33;7.53;;;13.20;72.00;;;;;;5053192;28;20076;-74
2022/11/12 09:45:49;;;;;;;13.53;8.47;;;13.30;71.70;;;;;;5053122;28;20271;-74
2022/11/12 09:48:31;;;;;;;13.13;7.90;;;13.30;70.70;;;;;;5053109;28;20017;-74
2022/11/12 09:51:05;;;;;;;13.15;7.53;;;13.00;71.70;;;;;;5053153;28;20025;-74
2022/11/12 09:53:36;;;;;;;12.10;7.22;;;12.90;72.70;;;;;;5053106;28;20026;-74
2022/11/12 09:56:06;;;;;;;14.57;7.93;;;12.80;73.20;;;;;;5053066;28;20032;-74
2022/11/12 09:58:32;;;;;;;13.15;7.75;;;12.70;73.60;;;;;;5052950;28;20643;-74
2022/11/12 10:01:08;;;;;;;12.15;7.50;;;12.70;74.20;;;;;;5035644;28;20036;-74
2022/11/12 10:04:02;;;;;;;13.75;7.95;;;12.70;74.30;;;;;;5053032;28;20026;-74
2022/11/12 10:06:44;;;;;;;12.73;8.05;;;12.70;75.10;;;;;;5053147;28;20022;-74
2022/11/12 10:09:16;;;;;;;13.45;8.05;;;12.70;74.80;;;;;;5052931;28;20022;-74
2022/11/12 10:12:31;;;;;;;10.80;7.15;;;12.70;74.80;;;;;;5051962;28;20022;-74
2022/11/12 10:18:06;;;;;;;11.65;7.57;;;12.70;75.90;;;;;;5052839;28;20036;-74
2022/11/12 10:20:40;;;;;;;12.82;8.30;;;12.80;75.10;;;;;;5035373;28;20026;-74
2022/11/12 10:23:18;;;;;;;13.45;8.93;;;12.80;75.10;;;;;;5052866;28;20025;-74
2022/11/12 10:25:47;;;;;;;12.70;7.85;;;12.80;75.30;;;;;;5035282;28;20041;-74
2022/11/12 10:28:25;;;;;;;11.07;7.35;;;12.80;75.80;;;;;;5035297;28;20104;-74
2022/11/12 10:30:58;;;;;;;11.10;7.18;;;13.00;75.90;;;;;;5052586;28;20045;-74
2022/11/12 10:33:29;;;;;;;15.07;8.27;;;13.20;75.60;;;;;;5052759;28;20025;-74
2022/11/12 10:36:04;;;;;;;12.05;8.07;;;13.20;75.10;;;;;;5052761;28;20026;-74
2022/11/12 10:38:33;;;;;;;11.32;7.60;;;13.20;75.10;;;;;;5052630;28;20108;-74
2022/11/12 10:41:16;;;;;;;14.88;8.23;;;13.20;75.40;;;;;;5053362;28;20022;-74
2022/11/12 10:44:05;;;;;;;16.30;8.65;;;13.30;75.60;;;;;;5056401;28;20024;-74
2022/11/12 10:46:39;;;;;;;14.13;8.30;;;13.30;75.20;;;;;;5056323;28;20022;-74
2022/11/12 10:49:06;;;;;;;15.25;8.40;;;13.40;75.60;;;;;;5056308;28;20040;-74
2022/11/12 10:51:34;;;;;;;12.73;8.05;;;13.40;75.20;;;;;;5038675;28;20036;-74
2022/11/12 10:54:25;;;;;;;12.05;8.30;;;13.30;75.20;;;;;;5056148;28;20037;-74
2022/11/12 10:56:53;;;;;;;14.35;8.77;;;13.40;75.30;;;;;;5056035;28;20056;-74
2022/11/12 10:59:23;;;;;;;13.05;8.98;;;13.40;75.30;;;;;;5056030;28;20042;-74
2022/11/12 11:01:58;;;;;;;14.27;8.02;;;13.40;75.30;;;;;;5056026;28;20026;-74
2022/11/12 11:04:27;;;;;;;15.07;8.15;;;13.50;75.40;;;;;;5055967;28;20021;-74
2022/11/12 11:07:15;;;;;;;12.73;8.57;;;13.60;75.40;;;;;;5038488;28;20026;-74
2022/11/12 11:10:14;;;;;;;13.40;7.95;;;13.60;75.30;;;;;;5055866;28;20057;-74
2022/11/12 11:12:40;;;;;;;12.75;8.40;;;13.60;75.30;;;;;;5037267;28;20026;-74
2022/11/12 11:15:14;;;;;;;14.38;8.57;;;13.70;75.30;;;;;;5055670;28;20437;-74
2022/11/12 11:17:40;;;;;;;13.48;8.90;;;13.70;75.10;;;;;;5038157;28;20065;-74
2022/11/12 11:20:23;;;;;;;15.57;8.32;;;13.70;75.30;;;;;;5038228;28;20025;-74
2022/11/12 11:23:29;;;;;;;13.00;8.60;;;13.80;74.50;;;;;;5038162;28;20032;-74
2022/11/12 11:26:03;;;;;;;14.65;8.35;;;13.80;74.70;;;;;;5048103;28;20033;-74
2022/11/12 11:28:47;;;;;;;11.77;8.05;;;13.90;74.90;;;;;;5055585;28;20109;-74
2022/11/12 11:31:21;;;;;;;11.85;7.88;;;13.90;74.30;;;;;;5054392;28;20046;-74
2022/11/12 11:34:17;;;;;;;13.65;8.45;;;13.90;73.60;;;;;;5054390;28;20037;-74
2022/11/12 11:37:21;;;;;;;14.20;9.57;;;14.00;74.10;;;;;;5054473;28;20021;-74
2022/11/12 11:39:50;;;;;;;10.50;7.78;;;14.00;74.00;;;;;;5049274;28;20400;-74
2022/11/12 11:42:27;;;;;;;13.90;8.20;;;14.10;73.50;;;;;;5054225;28;20045;-74
2022/11/12 11:45:08;;;;;;;11.77;8.55;;;14.10;73.80;;;;;;5054224;28;20025;-74
2022/11/12 11:47:54;;;;;;;12.38;8.45;;;14.20;73.10;;;;;;5054168;28;20022;-74
2022/11/12 11:50:25;;;;;;;12.95;8.15;;;14.30;73.20;;;;;;5054088;28;20021;-74
2022/11/12 11:53:28;;;;;;;13.75;8.20;;;14.30;73.70;;;;;;5052910;28;20040;-73
2022/11/12 11:56:04;;;;;;;11.48;8.23;;;14.50;72.60;;;;;;5036567;28;20029;-74
2022/11/12 11:59:16;;;;;;;13.35;8.63;;;14.50;72.70;;;;;;5053954;28;20018;-74
2022/11/12 12:01:47;;;;;;;12.13;8.27;;;14.60;73.30;;;;;;5054071;28;20025;-74
2022/11/12 12:04:30;;;;;;;13.33;8.60;;;14.70;72.30;;;;;;5053900;28;20108;-74
2022/11/12 12:07:40;;;;;;;12.60;8.63;;;14.70;71.40;;;;;;5053868;28;20049;-74
2022/11/12 12:10:28;;;;;;;13.27;8.05;;;14.80;71.90;;;;;;5053955;28;20430;-74
2022/11/12 12:13:01;;;;;;;12.00;7.95;;;14.90;71.70;;;;;;5052769;28;20047;-74
2022/11/12 12:15:38;;;;;;;10.23;7.68;;;14.90;71.80;;;;;;5053743;28;20022;-74
2022/11/12 12:18:22;;;;;;;13.00;8.60;;;15.00;71.30;;;;;;5053740;28;20056;-74
2022/11/12 12:21:00;;;;;;;10.85;7.88;;;15.00;70.60;;;;;;5053736;28;20064;-74
2022/11/12 12:23:25;;;;;;;10.80;8.07;;;15.00;70.90;;;;;;5053743;28;20029;-74
2022/11/12 12:25:54;;;;;;;13.48;8.35;;;15.10;71.00;;;;;;5053544;28;20081;-74
2022/11/12 12:28:44;;;;;;;12.65;8.50;;;15.10;70.80;;;;;;5053492;28;20086;-74
2022/11/12 12:31:17;;;;;;;15.30;8.73;;;15.20;71.60;;;;;;4996860;28;1129865;-74
2022/11/12 12:33:51;;;;;;;13.50;8.27;;;15.20;72.20;;;;;;5036831;28;20080;-74
2022/11/12 12:36:20;;;;;;;12.55;8.75;;;15.20;72.10;;;;;;5054236;28;20034;-74
2022/11/12 12:39:02;;;;;;;12.10;8.60;;;15.20;71.80;;;;;;5054127;28;20040;-74
2022/11/12 12:41:31;;;;;;;;;;;15.30;71.90;;;;;;5054585;28;20014;-74
2022/11/12 12:44:03;;;;;;;12.77;8.93;;;15.30;72.10;;;;;;5054124;28;19999;-74
2022/11/12 12:46:38;;;;;;;14.10;9.35;;;15.20;72.40;;;;;;5054130;28;20021;-74
2022/11/12 12:49:04;;;;;;;12.52;8.55;;;15.10;72.50;;;;;;5036578;28;20040;-74
2022/11/12 12:51:33;;;;;;;16.00;9.35;;;15.10;72.50;;;;;;5036530;28;20033;-74
2022/11/12 12:53:58;;;;;;;14.55;8.60;;;15.10;72.60;;;;;;5036362;28;20017;-74
2022/11/12 12:56:27;;;;;;;14.07;8.88;;;15.10;72.30;;;;;;5053901;28;20036;-75
2022/11/12 12:58:54;;;;;;;12.88;8.68;;;15.10;72.60;;;;;;5053745;28;20036;-74
2022/11/12 13:01:19;;;;;;;14.70;9.02;;;15.00;72.90;;;;;;5036632;28;20025;-74
2022/11/12 13:03:50;;;;;;;15.48;9.13;;;15.10;72.80;;;;;;5053459;28;20018;-74
2022/11/12 13:06:22;;;;;;;13.52;9.10;;;15.00;73.00;;;;;;5053887;28;20021;-74
2022/11/12 13:08:55;;;;;;;16.38;9.25;;;15.00;73.00;;;;;;5053616;28;20481;-74
2022/11/12 13:15:04;;;;;;;13.57;8.90;;;15.10;72.40;;;;;;5049281;28;20064;-74
2022/11/12 13:17:45;;;;;;;16.02;9.68;;;15.10;73.50;;;;;;5053500;28;20037;-74
2022/11/12 13:20:13;;;;;;;14.60;8.73;;;15.00;72.80;;;;;;5053470;28;20036;-74
2022/11/12 13:22:39;;;;;;;14.73;8.55;;;15.10;72.70;;;;;;5053463;28;20026;-74
2022/11/12 13:25:23;;;;;;;12.95;8.55;;;15.10;72.60;;;;;;5035949;28;20112;-74
2022/11/12 13:27:49;;;;;;;15.10;8.65;;;15.10;72.50;;;;;;5053473;28;20030;-74